sensor_id;sensor_type;location;lat;lon;timestamp;P1;durP1;ratioP1;P2;durP2;ratioP2
80193;SDS011;69515;42.072;21.504;2023-04-24T00:00:15;3.10;;;1.90;;
80193;SDS011;69515;42.072;21.504;2023-04-24T00:02:42;2.92;;;2.03;;
80193;SDS011;69515;42.072;21.504;2023-04-24T00:05:15;3.17;;;2.00;;
80193;SDS011;69515;42.072;21.504;2023-04-24T00:07:43;2.55;;;1.67;;
80193;SDS011;69515;42.072;21.504;2023-04-24T00:10:09;2.53;;;1.65;;
80193;SDS011;69515;42.072;21.504;2023-04-24T00:12:35;2.75;;;1.60;;
80193;SDS011;69515;42.072;21.504;2023-04-24T00:15:02;2.90;;;1.77;;
80193;SDS011;69515;42.072;21.504;2023-04-24T00:17:28;2.50;;;1.52;;
80193;SDS011;69515;42.072;21.504;2023-04-24T00:19:55;3.58;;;1.70;;
80193;SDS011;69515;42.072;21.504;2023-04-24T00:22:26;3.08;;;1.80;;
80193;SDS011;69515;42.072;21.504;2023-04-24T00:24:53;2.40;;;1.60;;
80193;SDS011;69515;42.072;21.504;2023-04-24T00:27:19;2.33;;;1.50;;
80193;SDS011;69515;42.072;21.504;2023-04-24T00:29:45;2.50;;;1.40;;
80193;SDS011;69515;42.072;21.504;2023-04-24T00:32:12;2.72;;;1.50;;
80193;SDS011;69515;42.072;21.504;2023-04-24T00:34:38;2.28;;;1.40;;
80193;SDS011;69515;42.072;21.504;2023-04-24T00:37:05;2.70;;;1.30;;
80193;SDS011;69515;42.072;21.504;2023-04-24T00:39:31;2.45;;;1.50;;
80193;SDS011;69515;42.072;21.504;2023-04-24T00:41:57;2.40;;;1.50;;
80193;SDS011;69515;42.072;21.504;2023-04-24T00:44:24;2.67;;;1.60;;
80193;SDS011;69515;42.072;21.504;2023-04-24T00:46:50;3.35;;;1.40;;
80193;SDS011;69515;42.072;21.504;2023-04-24T00:49:22;2.55;;;1.65;;
80193;SDS011;69515;42.072;21.504;2023-04-24T00:51:48;2.47;;;1.50;;
80193;SDS011;69515;42.072;21.504;2023-04-24T00:54:16;2.28;;;1.40;;
80193;SDS011;69515;42.072;21.504;2023-04-24T00:56:42;2.90;;;1.58;;
80193;SDS011;69515;42.072;21.504;2023-04-24T00:59:09;2.80;;;1.30;;
80193;SDS011;69515;42.072;21.504;2023-04-24T01:01:36;2.25;;;1.33;;
80193;SDS011;69515;42.072;21.504;2023-04-24T01:04:02;2.60;;;1.33;;
80193;SDS011;69515;42.072;21.504;2023-04-24T01:06:29;1.60;;;1.10;;
80193;SDS011;69515;42.072;21.504;2023-04-24T01:08:58;1.98;;;1.25;;
80193;SDS011;69515;42.072;21.504;2023-04-24T01:11:25;2.13;;;1.33;;
80193;SDS011;69515;42.072;21.504;2023-04-24T01:13:51;2.00;;;1.20;;
80193;SDS011;69515;42.072;21.504;2023-04-24T01:16:18;2.00;;;1.20;;
80193;SDS011;69515;42.072;21.504;2023-04-24T01:18:48;1.83;;;1.27;;
80193;SDS011;69515;42.072;21.504;2023-04-24T01:21:15;1.73;;;1.17;;
80193;SDS011;69515;42.072;21.504;2023-04-24T01:23:45;2.00;;;1.20;;
80193;SDS011;69515;42.072;21.504;2023-04-24T01:26:11;1.63;;;1.10;;
80193;SDS011;69515;42.072;21.504;2023-04-24T01:28:38;1.52;;;1.00;;
80193;SDS011;69515;42.072;21.504;2023-04-24T01:31:05;1.48;;;1.10;;
80193;SDS011;69515;42.072;21.504;2023-04-24T01:33:31;2.17;;;1.10;;
80193;SDS011;69515;42.072;21.504;2023-04-24T01:35:57;1.50;;;1.20;;
80193;SDS011;69515;42.072;21.504;2023-04-24T01:38:24;1.58;;;1.10;;
80193;SDS011;69515;42.072;21.504;2023-04-24T01:40:50;1.20;;;0.95;;
80193;SDS011;69515;42.072;21.504;2023-04-24T01:43:17;1.63;;;1.10;;
80193;SDS011;69515;42.072;21.504;2023-04-24T01:45:43;1.42;;;1.08;;
80193;SDS011;69515;42.072;21.504;2023-04-24T01:48:11;1.42;;;1.08;;
80193;SDS011;69515;42.072;21.504;2023-04-24T01:50:37;2.35;;;1.00;;
80193;SDS011;69515;42.072;21.504;2023-04-24T01:53:04;2.75;;;1.00;;
80193;SDS011;69515;42.072;21.504;2023-04-24T01:55:30;1.27;;;1.05;;
80193;SDS011;69515;42.072;21.504;2023-04-24T01:57:57;1.63;;;1.20;;
80193;SDS011;69515;42.072;21.504;2023-04-24T02:00:23;1.05;;;0.90;;
80193;SDS011;69515;42.072;21.504;2023-04-24T02:02:50;1.25;;;0.90;;
80193;SDS011;69515;42.072;21.504;2023-04-24T02:05:16;1.27;;;0.90;;
80193;SDS011;69515;42.072;21.504;2023-04-24T02:07:42;1.75;;;1.05;;
80193;SDS011;69515;42.072;21.504;2023-04-24T02:10:09;1.15;;;0.90;;
80193;SDS011;69515;42.072;21.504;2023-04-24T02:12:35;1.67;;;1.00;;
80193;SDS011;69515;42.072;21.504;2023-04-24T02:17:28;1.00;;;0.88;;
80193;SDS011;69515;42.072;21.504;2023-04-24T02:19:54;1.52;;;1.00;;
80193;SDS011;69515;42.072;21.504;2023-04-24T02:22:20;1.30;;;1.10;;
80193;SDS011;69515;42.072;21.504;2023-04-24T02:27:13;1.45;;;1.00;;
80193;SDS011;69515;42.072;21.504;2023-04-24T02:29:39;1.25;;;1.00;;
80193;SDS011;69515;42.072;21.504;2023-04-24T02:34:32;1.27;;;0.90;;
80193;SDS011;69515;42.072;21.504;2023-04-24T02:39:24;0.90;;;0.80;;
80193;SDS011;69515;42.072;21.504;2023-04-24T02:44:16;1.33;;;0.90;;
80193;SDS011;69515;42.072;21.504;2023-04-24T02:46:42;0.80;;;0.70;;
80193;SDS011;69515;42.072;21.504;2023-04-24T02:49:09;1.38;;;0.90;;
80193;SDS011;69515;42.072;21.504;2023-04-24T02:51:37;0.98;;;0.75;;
80193;SDS011;69515;42.072;21.504;2023-04-24T02:54:06;1.02;;;0.70;;
80193;SDS011;69515;42.072;21.504;2023-04-24T02:56:33;1.10;;;0.90;;
80193;SDS011;69515;42.072;21.504;2023-04-24T02:58:59;1.38;;;0.90;;
80193;SDS011;69515;42.072;21.504;2023-04-24T03:03:52;1.10;;;1.00;;
80193;SDS011;69515;42.072;21.504;2023-04-24T03:08:44;1.15;;;0.90;;
80193;SDS011;69515;42.072;21.504;2023-04-24T03:13:36;1.15;;;0.90;;
80193;SDS011;69515;42.072;21.504;2023-04-24T03:16:02;1.00;;;0.90;;
80193;SDS011;69515;42.072;21.504;2023-04-24T03:20:54;1.30;;;1.10;;
80193;SDS011;69515;42.072;21.504;2023-04-24T03:25:46;0.80;;;0.80;;
80193;SDS011;69515;42.072;21.504;2023-04-24T03:28:13;1.08;;;0.80;;
80193;SDS011;69515;42.072;21.504;2023-04-24T03:30:40;1.58;;;0.82;;
80193;SDS011;69515;42.072;21.504;2023-04-24T03:33:06;1.05;;;0.82;;
80193;SDS011;69515;42.072;21.504;2023-04-24T03:35:32;0.80;;;0.80;;
80193;SDS011;69515;42.072;21.504;2023-04-24T03:37:58;1.40;;;0.90;;
80193;SDS011;69515;42.072;21.504;2023-04-24T03:42:51;1.15;;;0.90;;
80193;SDS011;69515;42.072;21.504;2023-04-24T03:47:43;1.13;;;0.90;;
80193;SDS011;69515;42.072;21.504;2023-04-24T03:50:09;1.05;;;0.90;;
80193;SDS011;69515;42.072;21.504;2023-04-24T03:52:35;0.95;;;0.77;;
80193;SDS011;69515;42.072;21.504;2023-04-24T03:57:28;1.20;;;0.90;;
80193;SDS011;69515;42.072;21.504;2023-04-24T03:59:54;0.98;;;0.85;;
80193;SDS011;69515;42.072;21.504;2023-04-24T04:02:20;1.00;;;0.88;;
80193;SDS011;69515;42.072;21.504;2023-04-24T04:07:13;0.90;;;0.80;;
80193;SDS011;69515;42.072;21.504;2023-04-24T04:09:39;0.80;;;0.80;;
80193;SDS011;69515;42.072;21.504;2023-04-24T04:14:31;1.25;;;0.90;;
80193;SDS011;69515;42.072;21.504;2023-04-24T04:19:23;1.05;;;0.82;;
80193;SDS011;69515;42.072;21.504;2023-04-24T04:24:18;0.80;;;0.70;;
80193;SDS011;69515;42.072;21.504;2023-04-24T04:26:46;1.80;;;1.10;;
80193;SDS011;69515;42.072;21.504;2023-04-24T04:29:12;0.80;;;0.70;;
80193;SDS011;69515;42.072;21.504;2023-04-24T04:31:39;0.98;;;0.80;;
80193;SDS011;69515;42.072;21.504;2023-04-24T04:34:05;1.17;;;0.95;;
80193;SDS011;69515;42.072;21.504;2023-04-24T04:36:32;0.65;;;0.65;;
80193;SDS011;69515;42.072;21.504;2023-04-24T04:39:02;1.00;;;0.90;;
80193;SDS011;69515;42.072;21.504;2023-04-24T04:41:29;0.88;;;0.80;;
80193;SDS011;69515;42.072;21.504;2023-04-24T04:43:55;1.08;;;0.80;;
80193;SDS011;69515;42.072;21.504;2023-04-24T04:46:23;1.40;;;0.90;;
80193;SDS011;69515;42.072;21.504;2023-04-24T04:48:51;0.80;;;0.80;;
80193;SDS011;69515;42.072;21.504;2023-04-24T04:51:18;0.70;;;0.70;;
80193;SDS011;69515;42.072;21.504;2023-04-24T04:53:45;0.98;;;0.88;;
80193;SDS011;69515;42.072;21.504;2023-04-24T04:59:18;0.85;;;0.70;;
80193;SDS011;69515;42.072;21.504;2023-04-24T05:01:51;0.70;;;0.70;;
80193;SDS011;69515;42.072;21.504;2023-04-24T05:04:19;0.80;;;0.75;;
80193;SDS011;69515;42.072;21.504;2023-04-24T05:09:48;1.05;;;0.80;;
80193;SDS011;69515;42.072;21.504;2023-04-24T05:12:16;0.70;;;0.70;;
80193;SDS011;69515;42.072;21.504;2023-04-24T05:14:42;0.90;;;0.60;;
80193;SDS011;69515;42.072;21.504;2023-04-24T05:17:09;0.63;;;0.63;;
80193;SDS011;69515;42.072;21.504;2023-04-24T05:19:35;0.63;;;0.63;;
80193;SDS011;69515;42.072;21.504;2023-04-24T05:22:03;0.77;;;0.70;;
80193;SDS011;69515;42.072;21.504;2023-04-24T05:24:31;0.60;;;0.60;;
80193;SDS011;69515;42.072;21.504;2023-04-24T05:26:58;0.63;;;0.60;;
80193;SDS011;69515;42.072;21.504;2023-04-24T05:29:24;0.95;;;0.63;;
80193;SDS011;69515;42.072;21.504;2023-04-24T05:31:51;0.73;;;0.70;;
80193;SDS011;69515;42.072;21.504;2023-04-24T05:34:17;0.63;;;0.63;;
80193;SDS011;69515;42.072;21.504;2023-04-24T05:36:44;0.52;;;0.52;;
80193;SDS011;69515;42.072;21.504;2023-04-24T05:39:10;0.98;;;0.70;;
80193;SDS011;69515;42.072;21.504;2023-04-24T05:41:36;0.88;;;0.60;;
80193;SDS011;69515;42.072;21.504;2023-04-24T05:44:03;0.85;;;0.60;;
80193;SDS011;69515;42.072;21.504;2023-04-24T05:46:29;0.93;;;0.60;;
80193;SDS011;69515;42.072;21.504;2023-04-24T05:48:55;0.75;;;0.60;;
80193;SDS011;69515;42.072;21.504;2023-04-24T05:51:22;1.08;;;0.60;;
80193;SDS011;69515;42.072;21.504;2023-04-24T06:12:01;0.52;;;0.50;;
80193;SDS011;69515;42.072;21.504;2023-04-24T06:14:28;0.80;;;0.68;;
80193;SDS011;69515;42.072;21.504;2023-04-24T06:16:54;0.50;;;0.50;;
80193;SDS011;69515;42.072;21.504;2023-04-24T06:19:21;0.40;;;0.40;;
80193;SDS011;69515;42.072;21.504;2023-04-24T06:21:48;0.52;;;0.50;;
80193;SDS011;69515;42.072;21.504;2023-04-24T06:24:14;0.93;;;0.55;;
80193;SDS011;69515;42.072;21.504;2023-04-24T06:26:52;0.47;;;0.47;;
80193;SDS011;69515;42.072;21.504;2023-04-24T06:29:19;0.65;;;0.50;;
80193;SDS011;69515;42.072;21.504;2023-04-24T06:31:46;0.75;;;0.60;;
80193;SDS011;69515;42.072;21.504;2023-04-24T06:34:13;0.40;;;0.40;;
80193;SDS011;69515;42.072;21.504;2023-04-24T06:36:41;0.40;;;0.40;;
80193;SDS011;69515;42.072;21.504;2023-04-24T06:39:08;0.60;;;0.57;;
80193;SDS011;69515;42.072;21.504;2023-04-24T06:41:36;1.70;;;0.70;;
80193;SDS011;69515;42.072;21.504;2023-04-24T06:53:47;0.80;;;0.52;;
80193;SDS011;69515;42.072;21.504;2023-04-24T06:56:14;0.70;;;0.70;;
80193;SDS011;69515;42.072;21.504;2023-04-24T06:58:41;0.93;;;0.60;;
80193;SDS011;69515;42.072;21.504;2023-04-24T07:01:11;1.15;;;0.60;;
80193;SDS011;69515;42.072;21.504;2023-04-24T07:03:37;1.10;;;0.70;;
80193;SDS011;69515;42.072;21.504;2023-04-24T07:06:24;0.88;;;0.70;;
80193;SDS011;69515;42.072;21.504;2023-04-24T07:08:56;2.05;;;0.90;;
80193;SDS011;69515;42.072;21.504;2023-04-24T07:11:23;2.33;;;0.65;;
80193;SDS011;69515;42.072;21.504;2023-04-24T07:13:49;0.47;;;0.47;;
80193;SDS011;69515;42.072;21.504;2023-04-24T07:16:15;1.67;;;0.85;;
80193;SDS011;69515;42.072;21.504;2023-04-24T07:18:43;1.52;;;0.75;;
80193;SDS011;69515;42.072;21.504;2023-04-24T07:21:10;1.38;;;0.70;;
80193;SDS011;69515;42.072;21.504;2023-04-24T07:23:37;1.00;;;0.60;;
80193;SDS011;69515;42.072;21.504;2023-04-24T07:29:18;0.90;;;0.60;;
80193;SDS011;69515;42.072;21.504;2023-04-24T07:40:45;1.25;;;0.80;;
80193;SDS011;69515;42.072;21.504;2023-04-24T07:49:42;1.65;;;0.90;;
80193;SDS011;69515;42.072;21.504;2023-04-24T07:52:19;1.73;;;1.00;;
80193;SDS011;69515;42.072;21.504;2023-04-24T07:54:45;1.95;;;0.95;;
80193;SDS011;69515;42.072;21.504;2023-04-24T07:57:11;2.03;;;1.17;;
80193;SDS011;69515;42.072;21.504;2023-04-24T07:59:39;1.33;;;0.90;;
80193;SDS011;69515;42.072;21.504;2023-04-24T08:02:05;1.40;;;0.90;;
80193;SDS011;69515;42.072;21.504;2023-04-24T08:04:32;1.85;;;1.00;;
80193;SDS011;69515;42.072;21.504;2023-04-24T08:06:58;1.60;;;0.80;;
80193;SDS011;69515;42.072;21.504;2023-04-24T08:09:24;1.20;;;0.60;;
80193;SDS011;69515;42.072;21.504;2023-04-24T08:11:54;1.23;;;0.70;;
80193;SDS011;69515;42.072;21.504;2023-04-24T08:26:51;0.60;;;0.60;;
80193;SDS011;69515;42.072;21.504;2023-04-24T08:33:05;0.70;;;0.50;;
80193;SDS011;69515;42.072;21.504;2023-04-24T08:41:53;0.40;;;0.40;;
80193;SDS011;69515;42.072;21.504;2023-04-24T08:44:40;1.02;;;0.50;;
80193;SDS011;69515;42.072;21.504;2023-04-24T08:47:08;0.45;;;0.45;;
80193;SDS011;69515;42.072;21.504;2023-04-24T08:49:56;0.30;;;0.30;;
80193;SDS011;69515;42.072;21.504;2023-04-24T08:52:34;0.55;;;0.40;;
80193;SDS011;69515;42.072;21.504;2023-04-24T08:55:11;0.70;;;0.43;;
80193;SDS011;69515;42.072;21.504;2023-04-24T08:57:40;0.40;;;0.40;;
80193;SDS011;69515;42.072;21.504;2023-04-24T09:00:10;0.68;;;0.30;;
80193;SDS011;69515;42.072;21.504;2023-04-24T09:05:47;0.50;;;0.40;;
80193;SDS011;69515;42.072;21.504;2023-04-24T09:08:17;0.40;;;0.40;;
80193;SDS011;69515;42.072;21.504;2023-04-24T09:17:15;0.73;;;0.40;;
80193;SDS011;69515;42.072;21.504;2023-04-24T09:19:50;0.30;;;0.30;;
80193;SDS011;69515;42.072;21.504;2023-04-24T09:22:28;0.52;;;0.50;;
80193;SDS011;69515;42.072;21.504;2023-04-24T09:25:06;0.40;;;0.40;;
80193;SDS011;69515;42.072;21.504;2023-04-24T09:27:42;0.77;;;0.40;;
80193;SDS011;69515;42.072;21.504;2023-04-24T09:33:26;0.28;;;0.28;;
80193;SDS011;69515;42.072;21.504;2023-04-24T09:35:54;0.98;;;0.50;;
80193;SDS011;69515;42.072;21.504;2023-04-24T09:38:32;0.40;;;0.40;;
80193;SDS011;69515;42.072;21.504;2023-04-24T09:41:00;0.40;;;0.40;;
80193;SDS011;69515;42.072;21.504;2023-04-24T09:43:28;1.67;;;0.57;;
80193;SDS011;69515;42.072;21.504;2023-04-24T09:45:57;1.10;;;0.60;;
80193;SDS011;69515;42.072;21.504;2023-04-24T09:48:33;0.75;;;0.40;;
80193;SDS011;69515;42.072;21.504;2023-04-24T09:51:01;0.50;;;0.40;;
80193;SDS011;69515;42.072;21.504;2023-04-24T09:59:07;0.30;;;0.30;;
80193;SDS011;69515;42.072;21.504;2023-04-24T10:10:18;0.47;;;0.40;;
80193;SDS011;69515;42.072;21.504;2023-04-24T10:16:15;0.75;;;0.40;;
80193;SDS011;69515;42.072;21.504;2023-04-24T10:18:46;0.65;;;0.60;;
80193;SDS011;69515;42.072;21.504;2023-04-24T10:21:16;0.77;;;0.52;;
80193;SDS011;69515;42.072;21.504;2023-04-24T10:24:03;0.80;;;0.50;;
80193;SDS011;69515;42.072;21.504;2023-04-24T10:29:27;0.35;;;0.35;;
80193;SDS011;69515;42.072;21.504;2023-04-24T10:32:00;0.40;;;0.40;;
80193;SDS011;69515;42.072;21.504;2023-04-24T10:40:35;0.45;;;0.45;;
80193;SDS011;69515;42.072;21.504;2023-04-24T10:43:06;0.38;;;0.30;;
80193;SDS011;69515;42.072;21.504;2023-04-24T10:46:00;0.73;;;0.50;;
80193;SDS011;69515;42.072;21.504;2023-04-24T10:51:52;0.73;;;0.47;;
80193;SDS011;69515;42.072;21.504;2023-04-24T10:54:28;1.40;;;0.40;;
80193;SDS011;69515;42.072;21.504;2023-04-24T10:59:48;0.50;;;0.50;;
80193;SDS011;69515;42.072;21.504;2023-04-24T11:02:16;0.77;;;0.40;;
80193;SDS011;69515;42.072;21.504;2023-04-24T11:17:38;1.23;;;0.60;;
80193;SDS011;69515;42.072;21.504;2023-04-24T11:20:15;0.77;;;0.40;;
80193;SDS011;69515;42.072;21.504;2023-04-24T11:22:45;1.15;;;0.52;;
80193;SDS011;69515;42.072;21.504;2023-04-24T11:25:13;0.35;;;0.35;;
80193;SDS011;69515;42.072;21.504;2023-04-24T11:33:32;1.10;;;0.70;;
80193;SDS011;69515;42.072;21.504;2023-04-24T11:35:59;1.20;;;0.60;;
80193;SDS011;69515;42.072;21.504;2023-04-24T11:38:30;1.80;;;0.60;;
80193;SDS011;69515;42.072;21.504;2023-04-24T11:41:28;1.58;;;0.75;;
80193;SDS011;69515;42.072;21.504;2023-04-24T11:43:56;1.10;;;0.70;;
80193;SDS011;69515;42.072;21.504;2023-04-24T11:46:26;3.97;;;1.00;;
80193;SDS011;69515;42.072;21.504;2023-04-24T11:48:53;1.27;;;0.68;;
80193;SDS011;69515;42.072;21.504;2023-04-24T11:51:20;4.63;;;1.33;;
80193;SDS011;69515;42.072;21.504;2023-04-24T11:53:47;2.63;;;1.00;;
80193;SDS011;69515;42.072;21.504;2023-04-24T11:56:17;2.60;;;0.90;;
80193;SDS011;69515;42.072;21.504;2023-04-24T11:58:45;1.35;;;0.85;;
80193;SDS011;69515;42.072;21.504;2023-04-24T12:01:12;3.05;;;0.88;;
80193;SDS011;69515;42.072;21.504;2023-04-24T12:03:39;1.35;;;0.90;;
80193;SDS011;69515;42.072;21.504;2023-04-24T12:06:12;1.83;;;0.75;;
80193;SDS011;69515;42.072;21.504;2023-04-24T12:08:39;1.40;;;0.95;;
80193;SDS011;69515;42.072;21.504;2023-04-24T12:11:07;3.03;;;0.93;;
80193;SDS011;69515;42.072;21.504;2023-04-24T12:13:37;2.17;;;1.05;;
80193;SDS011;69515;42.072;21.504;2023-04-24T12:16:04;1.75;;;1.00;;
80193;SDS011;69515;42.072;21.504;2023-04-24T12:18:32;1.85;;;1.10;;
80193;SDS011;69515;42.072;21.504;2023-04-24T12:21:17;1.38;;;0.90;;
80193;SDS011;69515;42.072;21.504;2023-04-24T12:23:44;2.40;;;1.10;;
80193;SDS011;69515;42.072;21.504;2023-04-24T12:26:15;1.85;;;1.10;;
80193;SDS011;69515;42.072;21.504;2023-04-24T12:28:45;2.00;;;1.20;;
80193;SDS011;69515;42.072;21.504;2023-04-24T12:31:13;2.45;;;1.30;;
80193;SDS011;69515;42.072;21.504;2023-04-24T12:33:40;2.53;;;1.50;;
80193;SDS011;69515;42.072;21.504;2023-04-24T12:36:11;2.30;;;1.40;;
80193;SDS011;69515;42.072;21.504;2023-04-24T12:38:38;3.15;;;1.42;;
80193;SDS011;69515;42.072;21.504;2023-04-24T12:43:36;3.47;;;1.60;;
80193;SDS011;69515;42.072;21.504;2023-04-24T12:46:06;3.03;;;1.45;;
80193;SDS011;69515;42.072;21.504;2023-04-24T12:48:42;3.05;;;1.42;;
80193;SDS011;69515;42.072;21.504;2023-04-24T12:51:09;2.45;;;1.45;;
80193;SDS011;69515;42.072;21.504;2023-04-24T12:53:36;2.28;;;1.50;;
80193;SDS011;69515;42.072;21.504;2023-04-24T12:56:03;2.45;;;1.38;;
80193;SDS011;69515;42.072;21.504;2023-04-24T12:58:30;2.10;;;1.27;;
80193;SDS011;69515;42.072;21.504;2023-04-24T13:00:57;1.90;;;1.23;;
80193;SDS011;69515;42.072;21.504;2023-04-24T13:03:24;1.95;;;1.10;;
80193;SDS011;69515;42.072;21.504;2023-04-24T13:05:52;3.03;;;1.20;;
80193;SDS011;69515;42.072;21.504;2023-04-24T13:08:18;1.98;;;1.00;;
80193;SDS011;69515;42.072;21.504;2023-04-24T13:10:45;1.92;;;1.00;;
80193;SDS011;69515;42.072;21.504;2023-04-24T13:13:13;2.42;;;1.00;;
80193;SDS011;69515;42.072;21.504;2023-04-24T13:15:39;1.58;;;0.80;;
80193;SDS011;69515;42.072;21.504;2023-04-24T13:18:07;1.35;;;0.90;;
80193;SDS011;69515;42.072;21.504;2023-04-24T13:20:34;2.35;;;1.10;;
80193;SDS011;69515;42.072;21.504;2023-04-24T13:23:01;1.02;;;0.77;;
80193;SDS011;69515;42.072;21.504;2023-04-24T13:25:30;1.02;;;0.70;;
80193;SDS011;69515;42.072;21.504;2023-04-24T13:27:57;0.93;;;0.70;;
80193;SDS011;69515;42.072;21.504;2023-04-24T13:30:24;1.70;;;0.80;;
80193;SDS011;69515;42.072;21.504;2023-04-24T13:32:51;1.75;;;0.70;;
80193;SDS011;69515;42.072;21.504;2023-04-24T13:35:17;1.65;;;0.80;;
80193;SDS011;69515;42.072;21.504;2023-04-24T13:37:43;1.63;;;0.80;;
80193;SDS011;69515;42.072;21.504;2023-04-24T13:40:10;1.27;;;0.70;;
80193;SDS011;69515;42.072;21.504;2023-04-24T13:42:36;1.00;;;0.70;;
80193;SDS011;69515;42.072;21.504;2023-04-24T13:45:02;1.20;;;0.80;;
80193;SDS011;69515;42.072;21.504;2023-04-24T13:47:29;1.65;;;0.90;;
80193;SDS011;69515;42.072;21.504;2023-04-24T13:49:55;1.05;;;0.73;;
80193;SDS011;69515;42.072;21.504;2023-04-24T13:52:21;2.05;;;0.80;;
80193;SDS011;69515;42.072;21.504;2023-04-24T13:54:48;0.93;;;0.80;;
80193;SDS011;69515;42.072;21.504;2023-04-24T13:57:14;1.55;;;1.10;;
80193;SDS011;69515;42.072;21.504;2023-04-24T13:59:41;1.98;;;1.10;;
80193;SDS011;69515;42.072;21.504;2023-04-24T14:02:07;1.60;;;0.90;;
80193;SDS011;69515;42.072;21.504;2023-04-24T14:04:33;1.10;;;0.90;;
80193;SDS011;69515;42.072;21.504;2023-04-24T14:06:59;2.40;;;1.10;;
80193;SDS011;69515;42.072;21.504;2023-04-24T14:09:26;1.20;;;0.90;;
80193;SDS011;69515;42.072;21.504;2023-04-24T14:11:52;1.33;;;0.80;;
80193;SDS011;69515;42.072;21.504;2023-04-24T14:14:18;1.27;;;0.80;;
80193;SDS011;69515;42.072;21.504;2023-04-24T14:16:45;2.10;;;0.63;;
80193;SDS011;69515;42.072;21.504;2023-04-24T14:19:11;0.82;;;0.60;;
80193;SDS011;69515;42.072;21.504;2023-04-24T14:21:37;1.40;;;0.80;;
80193;SDS011;69515;42.072;21.504;2023-04-24T14:24:04;0.82;;;0.60;;
80193;SDS011;69515;42.072;21.504;2023-04-24T14:26:30;0.52;;;0.50;;
80193;SDS011;69515;42.072;21.504;2023-04-24T14:28:56;0.73;;;0.70;;
80193;SDS011;69515;42.072;21.504;2023-04-24T14:31:24;0.60;;;0.60;;
80193;SDS011;69515;42.072;21.504;2023-04-24T14:33:50;0.50;;;0.50;;
80193;SDS011;69515;42.072;21.504;2023-04-24T14:36:16;0.77;;;0.60;;
80193;SDS011;69515;42.072;21.504;2023-04-24T14:38:42;0.70;;;0.52;;
80193;SDS011;69515;42.072;21.504;2023-04-24T14:41:10;1.50;;;0.90;;
80193;SDS011;69515;42.072;21.504;2023-04-24T14:43:36;0.95;;;0.73;;
80193;SDS011;69515;42.072;21.504;2023-04-24T14:46:03;0.82;;;0.77;;
80193;SDS011;69515;42.072;21.504;2023-04-24T14:48:32;1.08;;;0.80;;
80193;SDS011;69515;42.072;21.504;2023-04-24T14:50:58;1.42;;;0.90;;
80193;SDS011;69515;42.072;21.504;2023-04-24T14:53:24;2.17;;;0.90;;
80193;SDS011;69515;42.072;21.504;2023-04-24T14:55:50;1.00;;;0.70;;
80193;SDS011;69515;42.072;21.504;2023-04-24T14:58:17;1.40;;;0.82;;
80193;SDS011;69515;42.072;21.504;2023-04-24T15:00:43;1.23;;;0.80;;
80193;SDS011;69515;42.072;21.504;2023-04-24T15:03:09;0.63;;;0.60;;
80193;SDS011;69515;42.072;21.504;2023-04-24T15:05:35;1.10;;;0.80;;
80193;SDS011;69515;42.072;21.504;2023-04-24T15:08:01;1.00;;;0.70;;
80193;SDS011;69515;42.072;21.504;2023-04-24T15:10:28;0.88;;;0.60;;
80193;SDS011;69515;42.072;21.504;2023-04-24T15:12:54;0.60;;;0.60;;
80193;SDS011;69515;42.072;21.504;2023-04-24T15:15:21;0.77;;;0.60;;
80193;SDS011;69515;42.072;21.504;2023-04-24T15:17:48;0.90;;;0.70;;
80193;SDS011;69515;42.072;21.504;2023-04-24T15:20:14;0.93;;;0.60;;
80193;SDS011;69515;42.072;21.504;2023-04-24T15:22:43;1.60;;;0.60;;
80193;SDS011;69515;42.072;21.504;2023-04-24T15:25:10;0.70;;;0.70;;
80193;SDS011;69515;42.072;21.504;2023-04-24T15:27:40;3.58;;;2.33;;
80193;SDS011;69515;42.072;21.504;2023-04-24T15:30:06;2.55;;;1.40;;
80193;SDS011;69515;42.072;21.504;2023-04-24T15:32:35;2.22;;;1.40;;
80193;SDS011;69515;42.072;21.504;2023-04-24T15:35:02;1.85;;;1.13;;
80193;SDS011;69515;42.072;21.504;2023-04-24T15:37:28;1.90;;;1.08;;
80193;SDS011;69515;42.072;21.504;2023-04-24T15:42:46;2.78;;;1.10;;
80193;SDS011;69515;42.072;21.504;2023-04-24T15:45:12;2.38;;;1.20;;
80193;SDS011;69515;42.072;21.504;2023-04-24T15:47:38;2.38;;;1.23;;
80193;SDS011;69515;42.072;21.504;2023-04-24T15:50:05;3.08;;;1.88;;
80193;SDS011;69515;42.072;21.504;2023-04-24T15:52:33;3.00;;;1.92;;
80193;SDS011;69515;42.072;21.504;2023-04-24T15:55:02;2.65;;;1.35;;
80193;SDS011;69515;42.072;21.504;2023-04-24T16:00:20;1.30;;;0.88;;
80193;SDS011;69515;42.072;21.504;2023-04-24T16:02:46;1.80;;;1.10;;
80193;SDS011;69515;42.072;21.504;2023-04-24T16:05:14;1.90;;;1.17;;
80193;SDS011;69515;42.072;21.504;2023-04-24T16:07:40;2.15;;;1.15;;
80193;SDS011;69515;42.072;21.504;2023-04-24T16:10:06;2.20;;;1.20;;
80193;SDS011;69515;42.072;21.504;2023-04-24T16:12:33;2.35;;;1.23;;
80193;SDS011;69515;42.072;21.504;2023-04-24T16:14:59;2.13;;;1.30;;
80193;SDS011;69515;42.072;21.504;2023-04-24T16:17:26;2.40;;;1.30;;
80193;SDS011;69515;42.072;21.504;2023-04-24T16:19:52;2.00;;;1.20;;
80193;SDS011;69515;42.072;21.504;2023-04-24T16:22:18;2.22;;;1.27;;
80193;SDS011;69515;42.072;21.504;2023-04-24T16:24:46;2.45;;;1.15;;
80193;SDS011;69515;42.072;21.504;2023-04-24T16:27:13;1.95;;;1.13;;
80193;SDS011;69515;42.072;21.504;2023-04-24T16:29:39;2.70;;;1.42;;
80193;SDS011;69515;42.072;21.504;2023-04-24T16:32:06;3.17;;;1.42;;
80193;SDS011;69515;42.072;21.504;2023-04-24T16:34:32;4.00;;;2.60;;
80193;SDS011;69515;42.072;21.504;2023-04-24T16:36:58;2.90;;;1.60;;
80193;SDS011;69515;42.072;21.504;2023-04-24T16:39:24;4.95;;;3.17;;
80193;SDS011;69515;42.072;21.504;2023-04-24T16:41:51;3.65;;;2.03;;
80193;SDS011;69515;42.072;21.504;2023-04-24T16:44:19;4.10;;;2.58;;
80193;SDS011;69515;42.072;21.504;2023-04-24T16:46:45;3.30;;;1.80;;
80193;SDS011;69515;42.072;21.504;2023-04-24T16:49:11;3.35;;;2.00;;
80193;SDS011;69515;42.072;21.504;2023-04-24T16:51:37;4.38;;;2.60;;
80193;SDS011;69515;42.072;21.504;2023-04-24T16:54:04;4.18;;;2.40;;
80193;SDS011;69515;42.072;21.504;2023-04-24T16:56:30;5.40;;;3.53;;
80193;SDS011;69515;42.072;21.504;2023-04-24T16:58:56;4.80;;;2.55;;
80193;SDS011;69515;42.072;21.504;2023-04-24T17:01:23;4.93;;;3.35;;
80193;SDS011;69515;42.072;21.504;2023-04-24T17:03:49;4.05;;;2.70;;
80193;SDS011;69515;42.072;21.504;2023-04-24T17:06:16;4.63;;;2.80;;
80193;SDS011;69515;42.072;21.504;2023-04-24T17:08:43;4.88;;;2.67;;
80193;SDS011;69515;42.072;21.504;2023-04-24T17:11:09;3.90;;;2.13;;
80193;SDS011;69515;42.072;21.504;2023-04-24T17:13:35;3.65;;;2.00;;
80193;SDS011;69515;42.072;21.504;2023-04-24T17:16:01;4.00;;;2.40;;
80193;SDS011;69515;42.072;21.504;2023-04-24T17:18:28;3.40;;;1.90;;
80193;SDS011;69515;42.072;21.504;2023-04-24T17:20:54;4.45;;;2.10;;
80193;SDS011;69515;42.072;21.504;2023-04-24T17:23:20;3.63;;;2.10;;
80193;SDS011;69515;42.072;21.504;2023-04-24T17:25:47;3.60;;;1.98;;
80193;SDS011;69515;42.072;21.504;2023-04-24T17:28:24;2.85;;;1.75;;
80193;SDS011;69515;42.072;21.504;2023-04-24T17:30:50;3.25;;;1.85;;
80193;SDS011;69515;42.072;21.504;2023-04-24T17:33:19;3.20;;;1.45;;
80193;SDS011;69515;42.072;21.504;2023-04-24T17:35:46;3.83;;;1.58;;
80193;SDS011;69515;42.072;21.504;2023-04-24T17:38:13;2.53;;;1.50;;
80193;SDS011;69515;42.072;21.504;2023-04-24T17:40:39;3.00;;;1.50;;
80193;SDS011;69515;42.072;21.504;2023-04-24T17:43:05;5.40;;;1.50;;
80193;SDS011;69515;42.072;21.504;2023-04-24T17:45:31;2.90;;;1.60;;